createdAt,value
2017-08-15T00:01:40.942Z,5.70
2017-08-15T00:04:08.659Z,5.33
2017-08-15T00:06:36.394Z,5.70
2017-08-15T00:09:04.185Z,5.40
2017-08-15T00:11:31.892Z,4.77
2017-08-15T00:13:59.626Z,5.30
2017-08-15T00:16:27.344Z,4.93
2017-08-15T00:18:55.822Z,5.60
2017-08-15T00:21:23.538Z,5.20
2017-08-15T00:23:51.249Z,5.00
2017-08-15T00:26:18.986Z,4.40
2017-08-15T00:28:47.074Z,5.40
2017-08-15T00:31:14.794Z,4.70
2017-08-15T00:33:43.310Z,5.03
2017-08-15T00:36:11.059Z,4.80
2017-08-15T00:38:38.771Z,4.83
2017-08-15T00:41:06.490Z,4.90
2017-08-15T00:43:34.234Z,4.60
2017-08-15T00:46:02.718Z,4.30
2017-08-15T00:48:30.537Z,4.53
2017-08-15T00:50:58.267Z,4.87
2017-08-15T00:53:26.050Z,4.90
2017-08-15T00:55:54.443Z,5.40
2017-08-15T00:58:23.661Z,4.63
2017-08-15T01:00:51.483Z,5.03
2017-08-15T01:03:19.682Z,4.80
2017-08-15T01:05:48.650Z,4.80
2017-08-15T01:08:16.393Z,4.80
2017-08-15T01:13:37.446Z,4.60
2017-08-15T01:16:06.890Z,4.40
2017-08-15T01:18:34.614Z,4.77
2017-08-15T01:21:02.395Z,4.70
2017-08-15T01:23:30.108Z,4.30
2017-08-15T01:25:57.837Z,4.50
2017-08-15T01:28:25.938Z,5.20
2017-08-15T01:30:53.669Z,4.97
2017-08-15T01:33:21.371Z,4.90
2017-08-15T01:35:49.091Z,4.70
2017-08-15T01:38:17.200Z,4.67
2017-08-15T01:40:45.845Z,4.50
2017-08-15T01:43:13.558Z,4.67
2017-08-15T01:45:41.271Z,4.57
2017-08-15T01:48:09.022Z,4.50
2017-08-15T01:50:36.742Z,4.13
2017-08-15T01:53:04.478Z,4.40
2017-08-15T01:55:32.215Z,4.40
2017-08-15T01:58:00.354Z,4.23
2017-08-15T02:00:28.490Z,4.37
2017-08-15T02:05:50.750Z,4.00
2017-08-15T02:08:20.263Z,4.27
2017-08-15T02:10:48.381Z,4.20
2017-08-15T02:13:16.127Z,4.43
2017-08-15T02:15:43.851Z,4.57
2017-08-15T02:18:12.826Z,4.50
2017-08-15T02:20:40.541Z,4.93
2017-08-15T02:23:08.266Z,4.40
2017-08-15T02:25:35.974Z,3.83
2017-08-15T02:28:04.544Z,4.67
2017-08-15T02:30:32.254Z,4.23
2017-08-15T02:32:59.994Z,3.60
2017-08-15T02:35:27.720Z,4.57
2017-08-15T02:37:56.624Z,4.17
2017-08-15T02:40:24.359Z,4.00
2017-08-15T02:42:52.099Z,4.60
2017-08-15T02:45:19.827Z,3.67
2017-08-15T02:47:47.546Z,3.83
2017-08-15T02:50:16.031Z,4.20
2017-08-15T02:52:43.756Z,4.20
2017-08-15T02:55:11.478Z,3.67
2017-08-15T02:57:39.198Z,3.97
2017-08-15T03:00:06.914Z,3.70
2017-08-15T03:02:34.622Z,3.60
2017-08-15T03:05:02.347Z,3.60
2017-08-15T03:07:30.230Z,3.70
2017-08-15T03:12:53.595Z,3.87
2017-08-15T03:15:22.180Z,3.50
2017-08-15T03:17:49.887Z,4.00
2017-08-15T03:20:18.365Z,3.63
2017-08-15T03:22:46.089Z,4.10
2017-08-15T03:25:13.810Z,3.30
2017-08-15T03:27:42.290Z,3.27
2017-08-15T03:30:10.008Z,3.83
2017-08-15T03:32:37.724Z,3.70
2017-08-15T03:35:05.437Z,4.17
2017-08-15T03:37:33.145Z,3.93
2017-08-15T03:40:00.857Z,4.27
2017-08-15T03:42:28.578Z,4.17
2017-08-15T03:44:56.351Z,4.33
2017-08-15T03:47:24.046Z,3.70
2017-08-15T03:49:51.833Z,3.73
2017-08-15T03:52:19.537Z,4.60
2017-08-15T03:54:47.918Z,4.00
2017-08-15T03:57:15.713Z,4.17
2017-08-15T03:59:43.438Z,3.50
2017-08-15T04:02:11.150Z,4.27
2017-08-15T04:04:38.871Z,3.87
2017-08-15T04:07:06.578Z,3.60
2017-08-15T04:09:35.223Z,3.53
2017-08-15T04:12:02.938Z,3.90
2017-08-15T04:14:30.650Z,3.77
2017-08-15T04:16:58.366Z,3.53
2017-08-15T04:19:26.115Z,3.80
2017-08-15T04:21:53.864Z,3.90
2017-08-15T04:24:21.587Z,3.77
2017-08-15T04:26:49.303Z,3.77
2017-08-15T04:29:17.018Z,4.00
2017-08-15T04:31:44.743Z,3.70
2017-08-15T04:34:12.472Z,3.50
2017-08-15T04:36:40.198Z,3.10
2017-08-15T04:39:07.897Z,3.90
2017-08-15T04:41:35.627Z,3.63
2017-08-15T04:44:03.619Z,3.53
2017-08-15T04:46:32.113Z,3.73
2017-08-15T04:48:59.846Z,3.90
2017-08-15T04:51:29.341Z,3.47
2017-08-15T04:53:57.054Z,4.00
2017-08-15T04:56:25.085Z,3.70
2017-08-15T04:58:52.843Z,4.57
2017-08-15T05:01:20.598Z,3.90
2017-08-15T05:03:48.319Z,3.90
2017-08-15T05:06:16.047Z,3.90
2017-08-15T05:08:43.767Z,4.37
2017-08-15T05:11:11.474Z,4.20
2017-08-15T05:13:39.187Z,3.97
2017-08-15T05:16:06.932Z,3.70
2017-08-15T05:18:34.672Z,3.87
2017-08-15T05:21:04.851Z,4.37
2017-08-15T05:23:32.586Z,4.07
2017-08-15T05:26:00.299Z,3.67
2017-08-15T05:28:28.015Z,3.90
2017-08-15T05:30:55.799Z,3.67
2017-08-15T05:33:23.515Z,3.53
2017-08-15T05:35:51.833Z,4.17
2017-08-15T05:38:19.690Z,3.60
2017-08-15T05:40:47.431Z,3.73
2017-08-15T05:43:15.150Z,3.80
2017-08-15T05:45:42.873Z,3.70
2017-08-15T05:48:10.586Z,3.10
2017-08-15T05:50:38.298Z,3.60
2017-08-15T05:53:06.004Z,3.90
2017-08-15T05:55:33.902Z,3.80
2017-08-15T05:58:01.606Z,3.97
2017-08-15T06:03:22.422Z,4.10
2017-08-15T06:05:51.486Z,3.80
2017-08-15T06:08:19.192Z,3.93
2017-08-15T06:10:47.518Z,3.27
2017-08-15T06:13:15.223Z,3.80
2017-08-15T06:15:43.923Z,3.10
2017-08-15T06:18:13.704Z,3.60
2017-08-15T06:20:42.914Z,3.80
2017-08-15T06:23:10.630Z,3.90
2017-08-15T06:25:38.342Z,3.57
2017-08-15T06:28:06.787Z,4.07
2017-08-15T06:30:34.519Z,3.63
2017-08-15T06:33:02.248Z,3.70
2017-08-15T06:35:29.974Z,3.90
2017-08-15T06:37:57.704Z,3.53
2017-08-15T06:40:25.838Z,3.83
2017-08-15T06:42:53.559Z,3.83
2017-08-15T06:48:14.163Z,4.07
2017-08-15T06:50:41.870Z,3.87
2017-08-15T06:53:10.379Z,4.17
2017-08-15T06:55:38.163Z,3.63
2017-08-15T06:58:05.877Z,3.57
2017-08-15T07:00:33.597Z,3.70
2017-08-15T07:03:02.223Z,3.90
2017-08-15T07:08:24.335Z,3.50
2017-08-15T07:10:53.655Z,3.50
2017-08-15T07:13:21.378Z,3.83
2017-08-15T07:15:50.102Z,3.40
2017-08-15T07:18:17.818Z,3.80
2017-08-15T07:20:46.331Z,3.23
2017-08-15T07:23:14.038Z,3.27
2017-08-15T07:25:41.783Z,3.13
2017-08-15T07:28:09.507Z,3.50
2017-08-15T07:30:38.122Z,3.63
2017-08-15T07:33:05.871Z,3.67
2017-08-15T07:35:33.586Z,3.63
2017-08-15T07:38:01.303Z,3.80
2017-08-15T07:40:29.336Z,3.87
2017-08-15T07:42:57.036Z,4.27
2017-08-15T07:45:26.480Z,4.00
2017-08-15T07:47:54.250Z,3.87
2017-08-15T07:50:23.588Z,4.20
2017-08-15T07:52:51.396Z,3.63
2017-08-15T07:55:19.103Z,3.50
2017-08-15T07:57:46.802Z,3.20
2017-08-15T08:00:20.955Z,3.50
2017-08-15T08:02:49.063Z,3.40
2017-08-15T08:05:16.773Z,3.17
2017-08-15T08:07:44.490Z,3.50
2017-08-15T08:10:12.215Z,3.43
2017-08-15T08:12:39.918Z,4.00
2017-08-15T08:15:07.638Z,3.70
2017-08-15T08:17:35.356Z,3.40
2017-08-15T08:20:03.074Z,3.80
2017-08-15T08:22:30.796Z,4.30
2017-08-15T08:24:58.500Z,3.97
2017-08-15T08:27:27.001Z,3.77
2017-08-15T08:29:54.719Z,4.20
2017-08-15T08:32:22.426Z,3.70
2017-08-15T08:34:50.523Z,4.17
2017-08-15T08:37:18.250Z,4.40
2017-08-15T08:39:45.979Z,4.10
2017-08-15T08:45:06.319Z,3.57
2017-08-15T08:47:34.026Z,3.80
2017-08-15T08:50:01.742Z,4.23
2017-08-15T08:52:29.443Z,3.87
2017-08-15T08:54:57.150Z,3.90
2017-08-15T08:57:24.914Z,3.40
2017-08-15T08:59:53.954Z,3.53
2017-08-15T09:02:21.659Z,4.10
2017-08-15T09:04:49.399Z,3.67
2017-08-15T09:07:17.924Z,3.93
2017-08-15T09:09:45.697Z,3.73
2017-08-15T09:12:13.458Z,3.77
2017-08-15T09:14:41.226Z,4.20
2017-08-15T09:17:09.150Z,4.40
2017-08-15T09:19:37.660Z,4.57
2017-08-15T09:22:05.417Z,4.20
2017-08-15T09:24:33.191Z,4.30
2017-08-15T09:27:00.895Z,3.93
2017-08-15T09:29:28.659Z,3.60
2017-08-15T09:31:56.378Z,4.00
2017-08-15T09:34:24.145Z,4.00
2017-08-15T09:36:52.355Z,4.07
2017-08-15T09:39:20.110Z,4.40
2017-08-15T09:41:47.872Z,4.10
2017-08-15T09:44:15.611Z,3.57
2017-08-15T09:46:43.327Z,4.20
2017-08-15T09:49:13.003Z,3.50
2017-08-15T09:51:40.727Z,3.80
2017-08-15T09:54:08.439Z,4.10
2017-08-15T09:56:36.142Z,4.17
2017-08-15T09:59:08.834Z,4.10
2017-08-15T10:01:36.554Z,3.77
2017-08-15T10:04:05.130Z,3.70
2017-08-15T10:06:32.959Z,3.53
2017-08-15T10:09:00.732Z,3.40
2017-08-15T10:11:28.490Z,3.60
2017-08-15T10:13:56.200Z,4.10
2017-08-15T10:16:23.903Z,3.27
2017-08-15T10:18:51.625Z,3.63
2017-08-15T10:21:21.114Z,3.73
2017-08-15T10:23:48.869Z,3.50
2017-08-15T10:26:16.583Z,3.40
2017-08-15T10:28:44.298Z,3.93
2017-08-15T10:31:12.011Z,3.90
2017-08-15T10:33:39.718Z,3.53
2017-08-15T10:36:07.526Z,3.73
2017-08-15T10:38:36.339Z,3.73
2017-08-15T10:41:04.154Z,3.60
2017-08-15T10:43:31.874Z,3.57
2017-08-15T10:45:59.664Z,3.63
2017-08-15T10:48:27.383Z,3.97
2017-08-15T10:50:55.150Z,3.80
2017-08-15T10:53:22.854Z,3.73
2017-08-15T10:55:50.560Z,4.10
2017-08-15T10:58:18.543Z,3.73
2017-08-15T11:00:46.388Z,3.53
2017-08-15T11:03:14.115Z,3.80
2017-08-15T11:05:41.890Z,3.90
2017-08-15T11:08:09.606Z,3.93
2017-08-15T11:10:37.431Z,3.70
2017-08-15T11:13:05.139Z,3.30
2017-08-15T11:15:34.478Z,3.40
2017-08-15T11:18:02.299Z,3.20
2017-08-15T11:20:30.059Z,3.53
2017-08-15T11:22:59.095Z,4.20
2017-08-15T11:25:26.803Z,3.47
2017-08-15T11:27:54.527Z,4.07
2017-08-15T11:30:22.255Z,3.37
2017-08-15T11:32:49.969Z,3.13
2017-08-15T11:35:17.677Z,3.13
2017-08-15T11:37:45.395Z,3.47
2017-08-15T11:40:15.151Z,3.87
2017-08-15T11:42:42.931Z,3.67
2017-08-15T11:45:10.650Z,3.40
2017-08-15T11:47:38.366Z,2.80
2017-08-15T11:50:06.067Z,3.00
2017-08-15T11:52:33.791Z,3.60
2017-08-15T11:55:11.368Z,3.00
2017-08-15T11:57:39.077Z,3.43
2017-08-15T12:00:06.810Z,3.40
2017-08-15T12:02:34.927Z,3.57
2017-08-15T12:05:02.646Z,3.60
2017-08-15T12:07:30.431Z,3.53
2017-08-15T12:09:58.843Z,3.67
2017-08-15T12:12:26.538Z,3.20
2017-08-15T12:14:54.584Z,3.60
2017-08-15T12:17:22.296Z,3.73
2017-08-15T12:19:50.091Z,4.10
2017-08-15T12:22:17.887Z,3.60
2017-08-15T12:24:45.586Z,3.90
2017-08-15T12:27:13.354Z,3.83
2017-08-15T12:29:41.080Z,3.60
2017-08-15T12:32:08.798Z,3.90
2017-08-15T12:34:36.534Z,4.50
2017-08-15T12:37:05.154Z,4.00
2017-08-15T12:39:32.875Z,3.70
2017-08-15T12:42:00.599Z,4.10
2017-08-15T12:44:28.294Z,4.33
2017-08-15T12:46:56.002Z,4.50
2017-08-15T12:49:23.710Z,4.40
2017-08-15T12:51:51.427Z,4.30
2017-08-15T12:54:19.155Z,4.30
2017-08-15T12:56:46.863Z,4.13
2017-08-15T12:59:35.579Z,4.60
2017-08-15T13:02:03.282Z,4.90
2017-08-15T13:04:31.256Z,4.23
2017-08-15T13:06:59.878Z,4.20
2017-08-15T13:09:27.631Z,4.27
2017-08-15T13:11:55.338Z,4.63
2017-08-15T13:14:23.044Z,3.70
2017-08-15T13:16:50.792Z,4.23
2017-08-15T13:19:18.539Z,3.60
2017-08-15T13:21:46.328Z,4.10
2017-08-15T13:24:14.855Z,4.20
2017-08-15T13:26:43.589Z,4.27
2017-08-15T13:29:11.332Z,4.20
2017-08-15T13:31:39.822Z,4.33
2017-08-15T13:34:07.583Z,3.60
2017-08-15T13:36:36.129Z,3.90
2017-08-15T13:39:03.962Z,3.70
2017-08-15T13:41:31.732Z,3.60
2017-08-15T13:43:59.646Z,3.33
2017-08-15T13:46:28.190Z,3.00
2017-08-15T13:48:55.937Z,3.60
2017-08-15T13:51:23.769Z,2.83
2017-08-15T13:53:53.461Z,3.03
2017-08-15T13:56:21.238Z,2.77
2017-08-15T13:58:49.006Z,2.80
2017-08-15T14:01:17.544Z,2.80
2017-08-15T14:03:45.311Z,3.30
2017-08-15T14:06:13.320Z,3.33
2017-08-15T14:08:41.162Z,3.20
2017-08-15T14:11:09.278Z,2.93
2017-08-15T14:13:37.291Z,2.87
2017-08-15T14:16:05.498Z,3.17
2017-08-15T14:18:34.153Z,3.53
2017-08-15T14:21:02.687Z,3.30
2017-08-15T14:23:30.406Z,2.97
2017-08-15T14:25:59.758Z,3.20
2017-08-15T14:28:27.524Z,3.00
2017-08-15T14:30:55.229Z,3.57
2017-08-15T14:33:22.990Z,3.10
2017-08-15T14:35:50.730Z,3.10
2017-08-15T14:38:18.445Z,3.00
2017-08-15T14:40:46.982Z,2.80
2017-08-15T14:43:14.846Z,3.10
2017-08-15T14:45:42.602Z,3.00
2017-08-15T14:48:10.390Z,3.17
2017-08-15T14:50:38.158Z,3.47
2017-08-15T14:53:05.911Z,3.20
2017-08-15T14:55:33.715Z,3.07
2017-08-15T14:58:01.478Z,3.23
2017-08-15T15:00:29.918Z,3.20
2017-08-15T15:02:57.683Z,3.27
2017-08-15T15:05:25.486Z,3.20
2017-08-15T15:07:54.006Z,3.07
2017-08-15T15:10:21.747Z,3.33
2017-08-15T15:12:49.520Z,3.50
2017-08-15T15:15:17.298Z,3.00
2017-08-15T15:17:45.051Z,3.53
2017-08-15T15:20:12.827Z,3.37
2017-08-15T15:22:40.578Z,3.57
2017-08-15T15:25:08.361Z,3.33
2017-08-15T15:27:36.730Z,3.10
2017-08-15T15:30:04.497Z,3.50
2017-08-15T15:32:32.231Z,3.70
2017-08-15T15:34:59.987Z,3.33
2017-08-15T15:37:27.754Z,3.40
2017-08-15T15:39:55.539Z,3.40
2017-08-15T15:42:23.307Z,3.40
2017-08-15T15:44:51.102Z,3.30
2017-08-15T15:47:18.811Z,3.37
2017-08-15T15:49:47.365Z,3.83
2017-08-15T15:52:15.086Z,3.37
2017-08-15T15:54:42.831Z,3.77
2017-08-15T15:57:10.534Z,3.30
2017-08-15T15:59:38.327Z,3.20
2017-08-15T16:02:06.036Z,3.50
2017-08-15T16:04:33.790Z,3.53
2017-08-15T16:07:01.504Z,3.30
2017-08-15T16:09:29.591Z,3.43
2017-08-15T16:11:57.430Z,3.67
2017-08-15T16:14:25.148Z,3.40
2017-08-15T16:16:52.935Z,3.70
2017-08-15T16:19:20.650Z,3.47
2017-08-15T16:21:48.367Z,3.30
2017-08-15T16:24:16.103Z,3.47
2017-08-15T16:26:44.795Z,3.90
2017-08-15T16:29:12.534Z,3.40
2017-08-15T16:31:40.250Z,3.73
2017-08-15T16:34:07.954Z,3.70
2017-08-15T16:36:35.664Z,3.70
2017-08-15T16:39:03.486Z,3.60
2017-08-15T16:44:23.966Z,3.87
2017-08-15T16:46:51.742Z,3.57
2017-08-15T16:49:19.508Z,3.70
2017-08-15T16:51:48.030Z,3.80
2017-08-15T16:54:15.782Z,3.70
2017-08-15T16:56:43.539Z,3.30
2017-08-15T16:59:12.630Z,4.07
2017-08-15T17:01:40.354Z,4.60
2017-08-15T17:04:08.105Z,4.30
2017-08-15T17:06:35.870Z,4.23
2017-08-15T17:09:03.741Z,4.00
2017-08-15T17:11:31.521Z,4.50
2017-08-15T17:13:59.227Z,4.37
2017-08-15T17:16:27.755Z,4.27
2017-08-15T17:18:55.743Z,4.00
2017-08-15T17:21:23.454Z,4.47
2017-08-15T17:23:51.184Z,4.73
2017-08-15T17:26:18.943Z,3.80
2017-08-15T17:28:46.665Z,4.27
2017-08-15T17:31:14.386Z,4.50
2017-08-15T17:33:43.331Z,4.07
2017-08-15T17:36:11.054Z,4.40
2017-08-15T17:38:39.394Z,3.90
2017-08-15T17:41:07.163Z,4.07
2017-08-15T17:43:34.870Z,4.50
2017-08-15T17:46:02.587Z,4.20
2017-08-15T17:48:30.290Z,4.30
2017-08-15T17:50:57.995Z,4.40
2017-08-15T17:53:25.716Z,4.10
2017-08-15T17:55:53.931Z,4.20
2017-08-15T17:58:21.638Z,4.50
2017-08-15T18:00:50.144Z,4.27
2017-08-15T18:03:17.886Z,4.77
2017-08-15T18:05:45.599Z,4.10
2017-08-15T18:08:13.302Z,4.53
2017-08-15T18:10:41.296Z,4.80
2017-08-15T18:13:09.019Z,3.83
2017-08-15T18:15:38.208Z,4.80
2017-08-15T18:18:06.346Z,4.57
2017-08-15T18:20:34.070Z,4.67
2017-08-15T18:23:01.796Z,4.80
2017-08-15T18:25:29.496Z,5.20
2017-08-15T18:27:57.560Z,4.57
2017-08-15T18:30:25.282Z,5.10
2017-08-15T18:32:52.995Z,4.77
2017-08-15T18:35:20.698Z,4.40
2017-08-15T18:37:48.432Z,5.00
2017-08-15T18:40:16.142Z,4.80
2017-08-15T18:42:45.062Z,4.73
2017-08-15T18:45:13.074Z,4.20
2017-08-15T18:47:40.779Z,4.33
2017-08-15T18:50:08.508Z,5.00
2017-08-15T18:52:36.251Z,4.50
2017-08-15T18:55:04.367Z,4.20
2017-08-15T18:57:32.091Z,4.77
2017-08-15T18:59:59.907Z,4.83
2017-08-15T19:02:27.908Z,4.93
2017-08-15T19:04:55.619Z,5.30
2017-08-15T19:07:24.518Z,5.17
2017-08-15T19:09:52.238Z,5.20
2017-08-15T19:12:19.947Z,5.33
2017-08-15T19:14:47.655Z,6.00
2017-08-15T19:17:15.375Z,5.40
2017-08-15T19:19:43.095Z,5.03
2017-08-15T19:22:10.811Z,5.63
2017-08-15T19:24:38.581Z,7.50
2017-08-15T19:27:06.717Z,7.60
2017-08-15T19:29:34.831Z,6.77
2017-08-15T19:32:02.570Z,6.40
2017-08-15T19:34:31.242Z,5.53
2017-08-15T19:36:58.971Z,5.27
2017-08-15T19:39:26.698Z,5.00
2017-08-15T19:41:54.442Z,4.70
2017-08-15T19:44:22.162Z,5.47
2017-08-15T19:46:50.763Z,3.90
2017-08-15T19:49:19.579Z,4.20
2017-08-15T19:51:47.282Z,4.60
2017-08-15T19:54:15.192Z,4.70
2017-08-15T19:56:42.918Z,4.80
2017-08-15T19:59:11.030Z,3.83
2017-08-15T20:01:38.737Z,4.43
2017-08-15T20:04:06.506Z,4.20
2017-08-15T20:06:37.025Z,3.93
2017-08-15T20:09:04.850Z,5.03
2017-08-15T20:11:32.602Z,4.90
2017-08-15T20:14:01.095Z,3.73
2017-08-15T20:16:29.207Z,4.57
2017-08-15T20:18:57.514Z,4.03
2017-08-15T20:21:26.003Z,4.60
2017-08-15T20:23:54.963Z,4.23
2017-08-15T20:26:22.684Z,4.30
2017-08-15T20:28:50.406Z,3.80
2017-08-15T20:31:18.516Z,4.10
2017-08-15T20:33:48.898Z,3.97
2017-08-15T20:36:16.670Z,3.67
2017-08-15T20:38:45.157Z,4.10
2017-08-15T20:41:12.850Z,3.70
2017-08-15T20:43:40.595Z,3.87
2017-08-15T20:46:08.315Z,4.10
2017-08-15T20:48:38.237Z,3.63
2017-08-15T20:51:06.340Z,4.03
2017-08-15T20:53:35.263Z,4.10
2017-08-15T20:56:02.992Z,4.27
2017-08-15T20:58:30.703Z,4.33
2017-08-15T21:00:58.433Z,4.33
2017-08-15T21:03:26.424Z,4.10
2017-08-15T21:05:54.542Z,3.80
2017-08-15T21:08:22.252Z,4.27
2017-08-15T21:10:50.355Z,3.60
2017-08-15T21:13:18.878Z,3.60
2017-08-15T21:15:47.419Z,3.27
2017-08-15T21:18:15.132Z,4.40
2017-08-15T21:20:42.839Z,3.70
2017-08-15T21:23:11.334Z,4.40
2017-08-15T21:25:39.440Z,3.87
2017-08-15T21:28:07.162Z,3.60
2017-08-15T21:30:35.282Z,3.67
2017-08-15T21:33:02.987Z,4.10
2017-08-15T21:35:30.690Z,4.07
2017-08-15T21:37:58.423Z,3.17
2017-08-15T21:40:27.146Z,3.40
2017-08-15T21:42:55.614Z,3.90
2017-08-15T21:45:24.075Z,4.10
2017-08-15T21:47:52.571Z,4.53
2017-08-15T21:50:20.295Z,3.40
2017-08-15T21:52:48.019Z,3.27
2017-08-15T21:55:15.750Z,3.73
2017-08-15T21:57:44.799Z,3.53
2017-08-15T22:00:12.574Z,3.77
2017-08-15T22:02:40.275Z,3.47
2017-08-15T22:05:08.012Z,3.97
2017-08-15T22:07:35.718Z,3.80
2017-08-15T22:10:03.491Z,3.60
2017-08-15T22:12:31.204Z,3.63
2017-08-15T22:14:58.911Z,4.40
2017-08-15T22:17:26.623Z,3.30
2017-08-15T22:19:54.330Z,3.73
2017-08-15T22:22:22.823Z,3.40
2017-08-15T22:24:50.543Z,3.27
2017-08-15T22:27:18.276Z,3.60
2017-08-15T22:29:45.987Z,3.40
2017-08-15T22:32:13.695Z,3.37
2017-08-15T22:34:41.396Z,3.40
2017-08-15T22:37:09.991Z,3.63
2017-08-15T22:39:38.138Z,3.10
2017-08-15T22:42:05.874Z,3.20
2017-08-15T22:44:33.991Z,3.20
2017-08-15T22:47:01.703Z,3.67
2017-08-15T22:49:29.439Z,3.90
2017-08-15T22:51:57.138Z,3.47
2017-08-15T22:54:24.862Z,3.50
2017-08-15T22:56:53.459Z,3.70
2017-08-15T22:59:21.192Z,3.97
2017-08-15T23:01:48.947Z,3.47
2017-08-15T23:04:16.662Z,3.53
2017-08-15T23:06:44.371Z,3.50
2017-08-15T23:09:12.090Z,4.00
2017-08-15T23:11:40.239Z,3.97
2017-08-15T23:14:08.347Z,4.00
2017-08-15T23:16:36.450Z,4.17
2017-08-15T23:19:04.180Z,4.07
2017-08-15T23:21:32.731Z,3.80
2017-08-15T23:24:01.486Z,3.97
2017-08-15T23:26:29.207Z,4.00
2017-08-15T23:28:57.682Z,4.40
2017-08-15T23:31:25.503Z,4.13
2017-08-15T23:33:53.229Z,4.00
2017-08-15T23:36:20.934Z,3.90
2017-08-15T23:38:48.642Z,4.63
2017-08-15T23:41:16.355Z,4.03
2017-08-15T23:43:44.107Z,3.90
2017-08-15T23:46:11.839Z,4.30
2017-08-15T23:48:39.554Z,4.53
2017-08-15T23:51:07.288Z,3.70
2017-08-15T23:53:35.003Z,4.00
2017-08-15T23:56:03.094Z,3.80
2017-08-15T23:58:30.822Z,4.00
